Time;durP1;ratioP1;P1;durP2;ratioP2;P2;SDS_P1;SDS_P2;PMS_P1;PMS_P2;Temp;Humidity;BMP_temperature;BMP_pressure;BME280_temperature;BME280_humidity;BME280_pressure;Samples;Min_cycle;Max_cycle;Signal;HPM_P1;HPM_P2
2023/05/09 00:01:38;;;;;;;0.00;0.00;;;15.50;84.30;;;;;;4992023;28;20042;-67
2023/05/09 00:04:03;;;;;;;0.00;0.00;;;15.50;84.40;;;;;;5003575;28;20061;-67
2023/05/09 00:06:29;;;;;;;0.00;0.00;;;15.50;84.50;;;;;;5009685;28;20042;-67
2023/05/09 00:08:55;;;;;;;0.00;0.00;;;15.50;84.50;;;;;;4999402;28;20030;-67
2023/05/09 00:11:21;;;;;;;0.00;0.00;;;15.40;84.60;;;;;;4989791;28;20900;-67
2023/05/09 00:13:47;;;;;;;0.00;0.00;;;15.40;84.70;;;;;;5008628;28;20073;-68
2023/05/09 00:16:14;;;;;;;0.00;0.00;;;15.40;84.70;;;;;;5010126;28;20038;-67
2023/05/09 00:18:41;;;;;;;0.00;0.00;;;15.30;84.70;;;;;;4993624;28;20189;-67
2023/05/09 00:21:07;;;;;;;0.00;0.00;;;15.30;84.80;;;;;;4973448;28;20142;-68
2023/05/09 00:23:33;;;;;;;0.00;0.00;;;15.30;84.70;;;;;;4966949;28;20046;-67
2023/05/09 00:25:59;;;;;;;0.00;0.00;;;15.20;84.60;;;;;;4969723;28;20537;-67
2023/05/09 00:28:25;;;;;;;0.00;0.00;;;15.30;84.60;;;;;;4986735;28;20174;-66
2023/05/09 00:30:51;;;;;;;0.05;0.05;;;15.20;84.50;;;;;;5008931;28;20426;-67
2023/05/09 00:33:16;;;;;;;0.00;0.00;;;15.20;84.50;;;;;;4995629;28;20034;-67
2023/05/09 00:35:42;;;;;;;0.00;0.00;;;15.20;84.50;;;;;;4990459;28;20046;-67
2023/05/09 00:38:07;;;;;;;0.00;0.00;;;15.20;84.50;;;;;;5002658;28;20558;-67
2023/05/09 00:40:33;;;;;;;0.10;0.10;;;15.10;84.60;;;;;;4990254;28;20450;-67
2023/05/09 00:42:59;;;;;;;0.00;0.00;;;15.10;84.70;;;;;;4993253;28;20038;-67
2023/05/09 00:45:25;;;;;;;0.00;0.00;;;15.10;84.80;;;;;;4990209;28;20046;-67
2023/05/09 00:47:50;;;;;;;0.00;0.00;;;15.00;84.90;;;;;;4995822;28;20054;-67
2023/05/09 00:50:16;;;;;;;0.00;0.00;;;15.10;85.00;;;;;;5009923;28;20391;-66
2023/05/09 00:52:41;;;;;;;0.10;0.10;;;15.10;85.00;;;;;;4999349;28;20050;-67
2023/05/09 00:55:07;;;;;;;0.00;0.00;;;15.00;85.00;;;;;;4999093;28;20093;-67
2023/05/09 00:57:33;;;;;;;0.00;0.00;;;15.10;85.10;;;;;;4991079;28;20046;-67
2023/05/09 01:00:00;;;;;;;0.00;0.00;;;15.10;85.20;;;;;;4990338;28;20071;-67
2023/05/09 01:02:26;;;;;;;0.00;0.00;;;15.00;85.30;;;;;;4997190;28;20096;-67
2023/05/09 01:04:52;;;;;;;0.65;0.65;;;15.00;85.30;;;;;;4989836;28;20419;-67
2023/05/09 01:07:26;;;;;;;0.00;0.00;;;15.10;85.50;;;;;;4997498;28;20549;-67
2023/05/09 01:09:57;;;;;;;0.00;0.00;;;15.00;85.50;;;;;;5000125;28;20096;-67
2023/05/09 01:12:44;;;;;;;0.00;0.00;;;15.00;85.40;;;;;;4998225;28;20088;-67
2023/05/09 01:15:32;;;;;;;0.00;0.00;;;15.10;85.60;;;;;;4998952;28;20093;-67
2023/05/09 01:18:27;;;;;;;0.00;0.00;;;15.10;85.60;;;;;;5005562;28;20415;-67
2023/05/09 01:21:07;;;;;;;0.00;0.00;;;15.10;85.40;;;;;;4992074;28;20411;-67
2023/05/09 01:23:48;;;;;;;0.00;0.00;;;15.10;85.50;;;;;;4993437;28;20777;-67
2023/05/09 01:26:35;;;;;;;0.00;0.00;;;15.10;85.60;;;;;;4993585;28;20747;-67
2023/05/09 01:29:34;;;;;;;0.00;0.00;;;15.00;85.80;;;;;;5001387;28;20561;-67
2023/05/09 01:32:06;;;;;;;0.00;0.00;;;15.10;85.70;;;;;;4991583;28;20050;-66
2023/05/09 01:34:32;;;;;;;;;;;15.00;85.80;;;;;;4990081;28;20050;-67
2023/05/09 01:37:00;;;;;;;0.00;0.00;;;15.10;85.80;;;;;;4993698;28;19921;-67
2023/05/09 01:39:27;;;;;;;0.00;0.00;;;15.10;85.80;;;;;;5001368;28;20076;-67
2023/05/09 01:41:57;;;;;;;0.00;0.00;;;15.10;85.70;;;;;;4996486;28;20054;-67
2023/05/09 01:44:24;;;;;;;0.00;0.00;;;15.00;85.80;;;;;;5002264;28;20474;-67
2023/05/09 01:46:52;;;;;;;0.00;0.00;;;15.00;85.80;;;;;;5002875;28;20380;-67
2023/05/09 01:49:20;;;;;;;0.00;0.00;;;15.00;85.80;;;;;;4991063;28;20061;-67
2023/05/09 01:51:47;;;;;;;0.00;0.00;;;15.00;85.70;;;;;;4989582;28;20061;-67
2023/05/09 01:54:14;;;;;;;0.00;0.00;;;15.00;85.90;;;;;;4990449;28;20047;-67
2023/05/09 01:56:41;;;;;;;0.00;0.00;;;15.00;85.90;;;;;;4994915;28;20052;-67
2023/05/09 01:59:07;;;;;;;0.03;0.03;;;15.00;86.10;;;;;;5000504;28;20050;-67
2023/05/09 02:01:33;;;;;;;0.00;0.00;;;15.00;86.10;;;;;;4989490;28;20045;-67
2023/05/09 02:04:01;;;;;;;0.10;0.10;;;15.00;86.40;;;;;;4995119;28;20041;-67
2023/05/09 02:06:28;;;;;;;0.00;0.00;;;15.00;86.50;;;;;;5003683;28;20042;-67
2023/05/09 02:08:54;;;;;;;0.10;0.10;;;15.10;86.40;;;;;;4994582;28;20197;-67
2023/05/09 02:11:20;;;;;;;0.00;0.00;;;15.00;86.70;;;;;;4994133;28;20038;-67
2023/05/09 02:13:46;;;;;;;0.00;0.00;;;15.10;86.60;;;;;;4993507;28;20034;-67
2023/05/09 02:16:11;;;;;;;0.00;0.00;;;15.00;86.80;;;;;;5006843;28;20038;-68
2023/05/09 02:18:37;;;;;;;0.13;0.13;;;15.00;86.80;;;;;;4989626;28;20066;-68
2023/05/09 02:21:03;;;;;;;0.00;0.00;;;15.00;86.90;;;;;;4990460;28;20518;-67
2023/05/09 02:23:29;;;;;;;0.00;0.00;;;15.10;86.80;;;;;;4992982;28;20101;-66
2023/05/09 02:25:55;;;;;;;0.00;0.00;;;15.10;86.80;;;;;;4991676;28;20045;-67
2023/05/09 02:28:22;;;;;;;1.85;0.95;;;15.00;86.60;;;;;;5011916;28;20038;-67
2023/05/09 02:30:49;;;;;;;0.00;0.00;;;15.00;86.60;;;;;;4994997;28;20046;-67
2023/05/09 02:33:17;;;;;;;0.00;0.00;;;15.10;86.50;;;;;;5003381;28;20042;-67
2023/05/09 02:35:45;;;;;;;0.00;0.00;;;15.00;86.60;;;;;;5011687;28;20049;-67
2023/05/09 02:38:11;;;;;;;0.00;0.00;;;15.10;86.80;;;;;;4994756;28;20042;-67
2023/05/09 02:40:38;;;;;;;0.00;0.00;;;15.10;86.90;;;;;;4998047;28;20505;-67
2023/05/09 02:43:04;;;;;;;0.00;0.00;;;15.10;86.80;;;;;;5000550;28;20131;-67
2023/05/09 02:45:29;;;;;;;0.00;0.00;;;15.10;86.60;;;;;;5004443;28;20070;-67
2023/05/09 02:47:55;;;;;;;0.00;0.00;;;15.10;86.80;;;;;;4994489;28;20144;-67
2023/05/09 02:50:21;;;;;;;0.00;0.00;;;15.10;86.70;;;;;;5002649;28;20050;-67
2023/05/09 02:52:46;;;;;;;0.00;0.00;;;15.10;86.60;;;;;;5007593;28;20823;-67
2023/05/09 02:55:12;;;;;;;0.00;0.00;;;15.10;86.60;;;;;;5010960;28;20438;-67
2023/05/09 02:57:37;;;;;;;0.30;0.30;;;15.10;86.70;;;;;;4997063;28;20622;-67
2023/05/09 03:00:10;;;;;;;0.00;0.00;;;15.10;86.70;;;;;;4997650;28;20137;-67
2023/05/09 03:02:36;;;;;;;0.00;0.00;;;15.10;86.50;;;;;;4997208;28;20129;-68
2023/05/09 03:05:02;;;;;;;0.00;0.00;;;15.10;86.60;;;;;;5002051;28;20046;-68
2023/05/09 03:07:28;;;;;;;0.00;0.00;;;15.10;86.70;;;;;;4996173;28;20038;-67
2023/05/09 03:09:54;;;;;;;0.00;0.00;;;15.10;86.70;;;;;;4996850;28;20042;-67
2023/05/09 03:12:20;;;;;;;0.00;0.00;;;15.10;86.70;;;;;;4998516;28;20047;-66
2023/05/09 03:14:46;;;;;;;0.00;0.00;;;15.10;86.60;;;;;;5008436;28;20038;-67
2023/05/09 03:17:11;;;;;;;0.00;0.00;;;15.10;86.70;;;;;;5009916;28;20131;-68
2023/05/09 03:19:37;;;;;;;0.00;0.00;;;15.00;86.70;;;;;;5011273;28;20157;-67
2023/05/09 03:22:02;;;;;;;0.00;0.00;;;15.10;86.90;;;;;;5002920;28;20047;-67
2023/05/09 03:24:28;;;;;;;0.00;0.00;;;15.10;86.90;;;;;;4992020;28;20124;-67
2023/05/09 03:26:54;;;;;;;0.00;0.00;;;15.10;86.90;;;;;;4996030;28;20125;-67
2023/05/09 03:29:19;;;;;;;0.00;0.00;;;15.10;86.80;;;;;;5011182;28;20120;-67
2023/05/09 03:31:45;;;;;;;0.05;0.05;;;15.10;86.70;;;;;;4996266;28;20070;-67
2023/05/09 03:34:13;;;;;;;0.00;0.00;;;15.10;86.70;;;;;;5006123;28;20057;-67
2023/05/09 03:36:43;;;;;;;0.00;0.00;;;15.10;86.70;;;;;;5004509;28;20121;-68
2023/05/09 03:39:09;;;;;;;0.00;0.00;;;15.10;86.70;;;;;;4972350;28;20047;-67
2023/05/09 03:41:35;;;;;;;0.00;0.00;;;15.10;86.70;;;;;;4973643;28;20046;-67
2023/05/09 03:44:02;;;;;;;0.00;0.00;;;15.10;86.70;;;;;;5010953;28;20053;-67
2023/05/09 03:46:27;;;;;;;0.00;0.00;;;15.10;86.60;;;;;;5009615;28;20070;-67
2023/05/09 03:48:53;;;;;;;0.00;0.00;;;15.00;86.80;;;;;;5010385;28;20077;-67
2023/05/09 03:51:19;;;;;;;0.00;0.00;;;15.10;86.90;;;;;;5005264;28;20073;-67
2023/05/09 03:53:46;;;;;;;0.00;0.00;;;15.00;87.00;;;;;;4995295;28;20550;-67
2023/05/09 03:56:12;;;;;;;0.00;0.00;;;15.10;87.00;;;;;;4991597;28;20053;-67
2023/05/09 03:58:38;;;;;;;0.00;0.00;;;15.10;86.90;;;;;;4991042;28;20590;-67
2023/05/09 04:01:03;;;;;;;0.00;0.00;;;15.10;86.90;;;;;;4995582;28;20051;-67
2023/05/09 04:03:30;;;;;;;0.00;0.00;;;15.10;86.90;;;;;;4992168;28;20047;-67
2023/05/09 04:05:56;;;;;;;0.00;0.00;;;15.10;87.00;;;;;;4990542;28;20510;-67
2023/05/09 04:08:22;;;;;;;0.00;0.00;;;15.10;87.00;;;;;;4990971;28;20042;-67
2023/05/09 04:10:49;;;;;;;0.00;0.00;;;15.10;86.90;;;;;;4996085;28;20030;-67
2023/05/09 04:13:15;;;;;;;0.00;0.00;;;15.10;87.00;;;;;;5005183;28;20053;-67
2023/05/09 04:15:41;;;;;;;0.00;0.00;;;15.10;87.00;;;;;;5002114;28;20037;-67
2023/05/09 04:18:07;;;;;;;0.00;0.00;;;15.10;87.20;;;;;;5010584;28;20042;-67
2023/05/09 04:20:32;;;;;;;0.00;0.00;;;15.10;87.20;;;;;;5007748;28;20104;-67
2023/05/09 04:22:58;;;;;;;0.00;0.00;;;15.10;87.20;;;;;;4995014;28;20112;-67
2023/05/09 04:25:24;;;;;;;0.00;0.00;;;15.10;87.20;;;;;;5003736;28;20041;-67
2023/05/09 04:27:50;;;;;;;0.00;0.00;;;15.10;87.10;;;;;;4991491;28;20561;-67
2023/05/09 04:30:15;;;;;;;0.00;0.00;;;15.10;87.10;;;;;;4988462;28;20414;-67
2023/05/09 04:32:44;;;;;;;0.00;0.00;;;15.10;87.20;;;;;;5004465;28;20578;-68
2023/05/09 04:35:10;;;;;;;0.10;0.10;;;15.10;87.10;;;;;;4993625;28;20069;-67
2023/05/09 04:37:36;;;;;;;0.00;0.00;;;15.10;87.10;;;;;;4991455;28;20043;-67
2023/05/09 04:40:03;;;;;;;0.00;0.00;;;15.10;87.10;;;;;;4993267;28;20045;-67
2023/05/09 04:42:28;;;;;;;0.00;0.00;;;15.10;87.10;;;;;;5003049;28;20050;-67
2023/05/09 04:44:54;;;;;;;0.00;0.00;;;15.10;87.00;;;;;;4990406;28;20392;-67
2023/05/09 04:47:20;;;;;;;0.00;0.00;;;15.10;87.20;;;;;;5005161;28;20601;-67
2023/05/09 04:49:47;;;;;;;0.00;0.00;;;15.00;87.10;;;;;;4992224;28;20738;-67
2023/05/09 04:52:12;;;;;;;0.82;0.75;;;15.10;87.20;;;;;;4980954;28;20605;-67
2023/05/09 04:54:38;;;;;;;0.00;0.00;;;15.10;87.10;;;;;;4990566;28;20050;-67
2023/05/09 04:57:05;;;;;;;0.00;0.00;;;15.00;87.10;;;;;;4993853;28;20042;-67
2023/05/09 04:59:31;;;;;;;0.00;0.00;;;15.10;87.20;;;;;;5001678;28;20472;-66
2023/05/09 05:01:56;;;;;;;0.10;0.10;;;15.10;87.20;;;;;;5009131;28;20049;-67
2023/05/09 05:04:22;;;;;;;0.00;0.00;;;15.10;87.30;;;;;;5005027;28;20045;-68
2023/05/09 05:06:48;;;;;;;2.47;0.57;;;15.20;87.40;;;;;;4983177;28;20049;-67
2023/05/09 05:09:13;;;;;;;0.00;0.00;;;15.20;87.50;;;;;;4993985;28;20053;-68
2023/05/09 05:11:39;;;;;;;0.00;0.00;;;15.30;87.40;;;;;;4987485;28;20048;-69
2023/05/09 05:14:04;;;;;;;0.00;0.00;;;15.30;87.40;;;;;;4988100;28;20042;-69
2023/05/09 05:16:30;;;;;;;0.10;0.10;;;15.30;87.40;;;;;;4989717;28;20077;-69
2023/05/09 05:18:56;;;;;;;0.00;0.00;;;15.30;87.50;;;;;;4992607;28;20046;-69
2023/05/09 05:21:21;;;;;;;0.00;0.00;;;15.50;87.50;;;;;;4989672;28;20578;-68
2023/05/09 05:23:47;;;;;;;0.00;0.00;;;15.50;87.40;;;;;;4989310;28;20042;-69
2023/05/09 05:26:12;;;;;;;0.10;0.10;;;15.50;87.40;;;;;;4987719;28;20046;-69
2023/05/09 05:28:38;;;;;;;0.00;0.00;;;15.50;87.70;;;;;;4989687;28;20053;-68
2023/05/09 05:31:03;;;;;;;0.30;0.30;;;15.50;87.70;;;;;;4989319;28;20928;-69
2023/05/09 05:33:29;;;;;;;0.68;0.47;;;15.50;87.70;;;;;;4988025;28;20121;-69
2023/05/09 05:35:54;;;;;;;0.05;0.05;;;15.60;87.80;;;;;;4988773;28;20038;-70
2023/05/09 05:38:20;;;;;;;0.00;0.00;;;15.50;87.60;;;;;;4988516;28;20069;-70
2023/05/09 05:40:45;;;;;;;0.00;0.00;;;15.60;87.70;;;;;;4988338;28;20043;-70
2023/05/09 05:43:11;;;;;;;0.13;0.13;;;15.60;87.70;;;;;;4988406;28;20687;-69
2023/05/09 05:45:37;;;;;;;0.08;0.08;;;15.60;87.80;;;;;;4988214;28;20451;-69
2023/05/09 05:48:02;;;;;;;0.08;0.08;;;15.60;87.90;;;;;;4988208;28;20058;-69
2023/05/09 05:50:28;;;;;;;0.00;0.00;;;15.60;87.80;;;;;;4986783;28;20049;-69
2023/05/09 05:52:54;;;;;;;0.08;0.08;;;15.60;87.90;;;;;;4988532;28;20394;-69
2023/05/09 05:55:19;;;;;;;0.25;0.25;;;15.60;87.90;;;;;;4987490;28;20053;-70
2023/05/09 05:57:46;;;;;;;0.98;0.95;;;15.60;88.00;;;;;;4989830;28;20043;-69
2023/05/09 06:00:13;;;;;;;0.00;0.00;;;15.60;88.00;;;;;;4972973;28;20455;-70
2023/05/09 06:02:43;;;;;;;0.10;0.10;;;15.60;88.00;;;;;;4993601;28;20051;-69
2023/05/09 06:05:09;;;;;;;0.00;0.00;;;15.70;88.00;;;;;;4993280;28;20042;-69
2023/05/09 06:07:34;;;;;;;2.08;0.85;;;15.70;88.10;;;;;;4992634;28;20042;-70
2023/05/09 06:10:01;;;;;;;0.00;0.00;;;15.80;87.90;;;;;;4993603;28;20079;-68
2023/05/09 06:12:26;;;;;;;0.10;0.10;;;15.80;88.00;;;;;;4992977;28;20042;-68
2023/05/09 06:14:52;;;;;;;0.10;0.10;;;15.80;87.70;;;;;;5001102;28;20478;-66
2023/05/09 06:17:17;;;;;;;0.28;0.28;;;15.80;87.90;;;;;;5006956;28;20039;-65
2023/05/09 06:19:43;;;;;;;0.00;0.00;;;15.90;87.80;;;;;;4993297;28;20042;-67
2023/05/09 06:22:09;;;;;;;0.20;0.20;;;16.00;87.90;;;;;;4992636;28;20149;-67
2023/05/09 06:24:34;;;;;;;0.00;0.00;;;15.90;87.70;;;;;;4991816;28;20054;-66
2023/05/09 06:27:00;;;;;;;0.00;0.00;;;16.00;87.70;;;;;;4991901;28;20687;-67
2023/05/09 06:29:25;;;;;;;0.10;0.10;;;16.00;87.70;;;;;;4991274;28;20435;-67
2023/05/09 06:31:51;;;;;;;0.15;0.15;;;16.00;87.80;;;;;;4992294;28;20043;-67
2023/05/09 06:34:16;;;;;;;0.00;0.00;;;16.00;87.70;;;;;;5004419;28;21502;-65
2023/05/09 06:36:42;;;;;;;0.20;0.20;;;16.10;87.80;;;;;;4994467;28;20050;-66
2023/05/09 06:39:07;;;;;;;0.00;0.00;;;16.10;87.70;;;;;;5012467;28;20501;-67
2023/05/09 06:41:33;;;;;;;0.00;0.00;;;16.10;87.50;;;;;;5003866;28;20537;-67
2023/05/09 06:44:01;;;;;;;0.10;0.10;;;16.20;87.30;;;;;;4992619;28;20056;-67
2023/05/09 06:46:27;;;;;;;0.00;0.00;;;16.20;87.20;;;;;;4992788;28;20047;-67
2023/05/09 06:48:52;;;;;;;0.00;0.00;;;16.20;87.10;;;;;;4992636;28;20059;-67
2023/05/09 06:51:18;;;;;;;5.53;1.05;;;16.20;86.90;;;;;;4994146;28;20042;-67
2023/05/09 06:53:43;;;;;;;0.40;0.40;;;16.20;87.10;;;;;;5007843;28;20041;-66
2023/05/09 06:56:09;;;;;;;0.00;0.00;;;16.20;87.00;;;;;;4994288;28;20522;-65
2023/05/09 06:58:35;;;;;;;0.32;0.32;;;16.20;87.00;;;;;;5002566;28;20538;-66
2023/05/09 07:01:01;;;;;;;0.85;0.85;;;16.30;86.80;;;;;;4993282;28;20052;-66
2023/05/09 07:03:26;;;;;;;0.22;0.22;;;16.20;86.80;;;;;;4990806;28;20045;-67
2023/05/09 07:05:52;;;;;;;0.28;0.28;;;16.30;86.60;;;;;;4990888;28;20073;-67
2023/05/09 07:08:17;;;;;;;0.20;0.20;;;16.30;86.50;;;;;;4990680;28;20073;-67
2023/05/09 07:10:43;;;;;;;0.47;0.47;;;16.30;86.30;;;;;;4990559;28;20533;-66
2023/05/09 07:13:08;;;;;;;2.10;1.02;;;16.30;86.20;;;;;;4990049;28;20555;-66
2023/05/09 07:15:34;;;;;;;0.10;0.10;;;16.30;86.50;;;;;;4990636;28;20045;-66
2023/05/09 07:18:00;;;;;;;0.85;0.68;;;16.30;86.50;;;;;;4991691;28;20039;-67
2023/05/09 07:20:25;;;;;;;1.55;0.30;;;16.40;86.20;;;;;;4990604;28;20054;-66
2023/05/09 07:22:51;;;;;;;0.75;0.57;;;16.30;86.10;;;;;;4992241;28;20093;-66
2023/05/09 07:25:16;;;;;;;0.82;0.80;;;16.40;86.00;;;;;;4990740;28;20049;-66
2023/05/09 07:27:42;;;;;;;0.10;0.10;;;16.30;85.90;;;;;;4991694;28;20053;-66
2023/05/09 07:30:08;;;;;;;0.30;0.30;;;16.40;85.90;;;;;;4990503;28;20407;-66
2023/05/09 07:32:34;;;;;;;0.60;0.60;;;16.40;85.70;;;;;;4991935;28;20042;-67
2023/05/09 07:35:00;;;;;;;0.85;0.85;;;16.30;86.00;;;;;;4992065;28;20089;-66
2023/05/09 07:37:26;;;;;;;0.85;0.82;;;16.40;85.90;;;;;;4991272;28;20065;-66
2023/05/09 07:39:51;;;;;;;0.95;0.35;;;16.40;85.90;;;;;;4991862;28;20042;-66
2023/05/09 07:42:17;;;;;;;0.00;0.00;;;16.30;85.80;;;;;;4991648;28;20046;-66
2023/05/09 07:44:42;;;;;;;0.30;0.30;;;16.30;85.70;;;;;;4991558;28;20057;-66
2023/05/09 07:47:08;;;;;;;0.30;0.30;;;16.30;85.60;;;;;;4990565;28;20077;-66
2023/05/09 07:49:34;;;;;;;0.00;0.00;;;16.30;85.60;;;;;;4991947;28;20050;-66
2023/05/09 07:52:00;;;;;;;0.20;0.20;;;16.40;85.60;;;;;;4991563;28;20096;-66
2023/05/09 07:54:26;;;;;;;0.20;0.20;;;16.30;85.60;;;;;;4991407;28;20082;-66
2023/05/09 07:56:52;;;;;;;0.50;0.50;;;16.30;85.50;;;;;;4991706;28;20042;-66
2023/05/09 07:59:18;;;;;;;0.52;0.52;;;16.40;85.50;;;;;;4991290;28;20054;-66
2023/05/09 08:01:43;;;;;;;0.57;0.57;;;16.40;85.50;;;;;;4989496;28;20101;-66
2023/05/09 08:04:09;;;;;;;2.80;0.75;;;16.40;85.60;;;;;;4990367;28;20054;-66
2023/05/09 08:06:35;;;;;;;0.20;0.20;;;16.40;85.60;;;;;;4991156;28;20134;-66
2023/05/09 08:09:01;;;;;;;2.65;0.85;;;16.40;85.50;;;;;;4990249;28;20039;-66
2023/05/09 08:11:26;;;;;;;0.10;0.10;;;16.40;85.60;;;;;;4973515;28;20034;-66
2023/05/09 08:13:52;;;;;;;0.03;0.03;;;16.40;85.50;;;;;;4991295;28;20101;-66
2023/05/09 08:16:18;;;;;;;0.10;0.10;;;16.50;85.40;;;;;;4991168;28;20511;-65
2023/05/09 08:18:44;;;;;;;1.48;0.57;;;16.50;85.50;;;;;;4990961;28;20045;-66
2023/05/09 08:21:10;;;;;;;0.80;0.73;;;16.50;85.40;;;;;;4990860;28;20097;-66
2023/05/09 08:23:35;;;;;;;0.28;0.28;;;16.60;85.40;;;;;;4990096;28;21089;-66
2023/05/09 08:26:01;;;;;;;0.55;0.55;;;16.50;85.00;;;;;;4991189;28;20077;-66
2023/05/09 08:28:27;;;;;;;0.10;0.10;;;16.50;84.90;;;;;;4990597;28;20046;-65
2023/05/09 08:30:56;;;;;;;0.10;0.10;;;16.50;84.60;;;;;;4991053;28;20050;-66
2023/05/09 08:33:22;;;;;;;0.20;0.20;;;16.60;84.60;;;;;;4990377;28;20039;-65
2023/05/09 08:35:52;;;;;;;0.30;0.30;;;16.60;84.60;;;;;;4990651;28;20042;-66
2023/05/09 08:38:18;;;;;;;2.08;0.98;;;16.60;84.60;;;;;;4990573;28;20085;-66
2023/05/09 08:40:44;;;;;;;2.42;0.75;;;16.80;84.60;;;;;;4990548;28;20496;-66
2023/05/09 08:43:11;;;;;;;0.00;0.00;;;16.80;84.50;;;;;;4990512;28;20050;-66
2023/05/09 08:45:57;;;;;;;0.20;0.20;;;16.80;84.50;;;;;;4989644;28;20042;-66
2023/05/09 08:48:23;;;;;;;0.20;0.20;;;16.80;84.40;;;;;;4990521;28;20050;-66
2023/05/09 08:50:50;;;;;;;0.93;0.90;;;16.90;84.40;;;;;;4990548;28;20081;-66
2023/05/09 08:53:15;;;;;;;0.85;0.82;;;17.00;84.40;;;;;;4990338;28;20455;-65
2023/05/09 08:55:41;;;;;;;0.20;0.20;;;17.00;84.10;;;;;;4990187;28;20129;-66
2023/05/09 08:58:08;;;;;;;0.00;0.00;;;17.10;84.10;;;;;;4990358;28;20046;-66
2023/05/09 09:00:36;;;;;;;0.10;0.10;;;17.20;84.00;;;;;;4990475;28;20042;-66
2023/05/09 09:03:04;;;;;;;0.05;0.05;;;17.10;83.80;;;;;;4990390;28;20042;-66
2023/05/09 09:05:34;;;;;;;0.00;0.00;;;17.20;83.70;;;;;;4988748;28;20458;-66
2023/05/09 09:08:02;;;;;;;0.00;0.00;;;17.30;83.70;;;;;;4990369;28;20054;-66
2023/05/09 09:10:30;;;;;;;0.45;0.45;;;17.40;83.60;;;;;;4989872;28;20042;-66
2023/05/09 09:12:58;;;;;;;0.00;0.00;;;17.40;83.30;;;;;;4990684;28;20042;-64
2023/05/09 09:15:27;;;;;;;0.32;0.32;;;17.40;82.90;;;;;;4989082;28;20157;-64
2023/05/09 09:17:57;;;;;;;0.10;0.10;;;17.50;82.60;;;;;;4990226;28;20132;-65
2023/05/09 09:20:25;;;;;;;0.40;0.40;;;17.40;82.60;;;;;;4989739;28;20065;-65
2023/05/09 09:22:54;;;;;;;0.25;0.25;;;17.50;82.30;;;;;;4990102;28;20466;-65
2023/05/09 09:25:20;;;;;;;0.00;0.00;;;17.50;82.40;;;;;;4988559;28;20515;-65
2023/05/09 09:27:45;;;;;;;0.00;0.00;;;17.50;81.80;;;;;;4990348;28;20042;-65
2023/05/09 09:30:11;;;;;;;1.45;0.35;;;17.50;81.50;;;;;;4988850;28;20057;-66
2023/05/09 09:32:40;;;;;;;0.45;0.45;;;17.60;81.80;;;;;;4989317;28;20491;-67
2023/05/09 09:35:08;;;;;;;0.35;0.35;;;17.60;82.00;;;;;;4989032;28;20105;-66
2023/05/09 09:37:35;;;;;;;0.00;0.00;;;17.70;82.00;;;;;;4990010;28;20088;-65
2023/05/09 09:40:01;;;;;;;0.15;0.15;;;17.70;81.50;;;;;;4989511;28;20566;-66
2023/05/09 09:42:39;;;;;;;0.00;0.00;;;17.70;81.50;;;;;;4989462;28;20045;-65
2023/05/09 09:45:12;;;;;;;0.00;0.00;;;17.70;81.50;;;;;;4988050;28;20510;-65
2023/05/09 09:47:41;;;;;;;0.50;0.50;;;17.80;81.70;;;;;;4989770;28;20049;-66
2023/05/09 09:50:14;;;;;;;0.10;0.10;;;17.80;81.50;;;;;;4989332;28;20109;-66
2023/05/09 09:52:54;;;;;;;1.08;0.80;;;17.80;81.50;;;;;;4989766;28;20074;-65
2023/05/09 09:55:21;;;;;;;0.00;0.00;;;17.80;81.40;;;;;;4989620;28;20042;-66
2023/05/09 09:57:47;;;;;;;0.50;0.50;;;17.70;80.90;;;;;;4989815;28;20046;-66
2023/05/09 10:00:15;;;;;;;0.17;0.17;;;17.80;80.80;;;;;;4989800;28;20133;-66
2023/05/09 10:02:52;;;;;;;0.00;0.00;;;17.70;81.00;;;;;;4990131;28;20046;-66
2023/05/09 10:05:26;;;;;;;0.63;0.55;;;17.80;81.30;;;;;;4989329;28;20050;-66
2023/05/09 10:08:02;;;;;;;2.00;0.55;;;17.80;81.50;;;;;;4989623;28;20092;-66
2023/05/09 10:10:30;;;;;;;0.00;0.00;;;17.80;81.50;;;;;;4969802;28;20046;-66
2023/05/09 10:12:57;;;;;;;0.20;0.20;;;17.80;81.30;;;;;;4970343;28;20071;-65
2023/05/09 10:15:23;;;;;;;0.00;0.00;;;17.70;81.40;;;;;;4970039;28;20053;-66
2023/05/09 10:17:57;;;;;;;0.00;0.00;;;17.70;81.30;;;;;;4969096;28;20419;-66
2023/05/09 10:20:24;;;;;;;0.13;0.13;;;17.70;81.50;;;;;;4969840;28;20038;-65
2023/05/09 10:22:53;;;;;;;1.55;0.98;;;17.70;81.70;;;;;;4970635;28;20038;-66
2023/05/09 10:25:21;;;;;;;0.57;0.57;;;17.60;81.80;;;;;;4989211;28;20537;-66
2023/05/09 10:27:47;;;;;;;1.35;1.10;;;17.60;82.00;;;;;;4989424;28;20039;-66
2023/05/09 10:30:18;;;;;;;0.00;0.00;;;17.50;82.10;;;;;;4989632;28;20050;-65
2023/05/09 10:32:56;;;;;;;0.03;0.03;;;17.50;82.30;;;;;;4988401;28;20038;-65
2023/05/09 10:35:31;;;;;;;0.10;0.10;;;17.40;82.30;;;;;;4987973;28;20578;-65
2023/05/09 10:37:58;;;;;;;0.00;0.00;;;17.40;82.40;;;;;;4988116;28;20398;-65
2023/05/09 10:40:26;;;;;;;3.08;1.05;;;17.20;82.70;;;;;;4989101;28;20077;-65
2023/05/09 10:42:51;;;;;;;0.00;0.00;;;17.10;82.80;;;;;;4988425;28;20431;-65
2023/05/09 10:45:20;;;;;;;0.45;0.38;;;17.00;83.10;;;;;;4989211;28;20098;-65
2023/05/09 10:47:48;;;;;;;0.98;0.45;;;17.00;83.50;;;;;;4990802;28;20113;-65
2023/05/09 10:50:16;;;;;;;0.10;0.10;;;16.90;83.90;;;;;;4992747;28;20050;-65
2023/05/09 10:53:03;;;;;;;0.00;0.00;;;16.80;84.10;;;;;;4992458;28;20454;-65
2023/05/09 10:55:35;;;;;;;0.00;0.00;;;16.80;84.20;;;;;;4991835;28;20499;-65
2023/05/09 10:58:25;;;;;;;0.00;0.00;;;16.80;84.20;;;;;;4992791;28;20057;-66
2023/05/09 11:00:52;;;;;;;2.47;0.45;;;16.90;84.50;;;;;;4992131;28;20546;-66
2023/05/09 11:03:18;;;;;;;0.10;0.10;;;16.90;84.50;;;;;;4991460;28;20130;-65
2023/05/09 11:05:45;;;;;;;0.10;0.10;;;16.90;84.40;;;;;;4992486;28;20125;-67
2023/05/09 11:08:18;;;;;;;0.00;0.00;;;17.00;84.40;;;;;;4991941;28;20062;-66
2023/05/09 11:10:44;;;;;;;0.00;0.00;;;17.00;84.40;;;;;;4991082;28;20050;-66
2023/05/09 11:13:10;;;;;;;0.00;0.00;;;17.00;84.60;;;;;;4990922;28;20077;-65
2023/05/09 11:16:09;;;;;;;0.00;0.00;;;17.00;84.60;;;;;;4992365;28;20578;-65
2023/05/09 11:18:49;;;;;;;0.60;0.43;;;16.90;84.50;;;;;;4991808;28;20511;-65
2023/05/09 11:21:15;;;;;;;0.03;0.03;;;16.90;84.60;;;;;;4991852;28;20129;-65
2023/05/09 11:23:41;;;;;;;0.00;0.00;;;16.80;84.70;;;;;;4992135;28;20117;-65
2023/05/09 11:26:07;;;;;;;0.30;0.30;;;16.80;84.80;;;;;;4974948;28;20112;-65
2023/05/09 11:28:35;;;;;;;0.10;0.10;;;16.70;85.20;;;;;;4992997;28;20084;-65
2023/05/09 11:31:12;;;;;;;0.00;0.00;;;16.60;85.30;;;;;;4992883;28;20042;-66
2023/05/09 11:33:38;;;;;;;0.00;0.00;;;16.60;85.00;;;;;;4991794;28;20380;-65
2023/05/09 11:36:17;;;;;;;0.00;0.00;;;16.50;85.20;;;;;;4991879;28;20574;-65
2023/05/09 11:38:44;;;;;;;0.30;0.30;;;16.60;85.50;;;;;;4991651;28;20571;-65
2023/05/09 11:41:10;;;;;;;0.00;0.00;;;16.50;85.60;;;;;;4991781;28;20403;-65
2023/05/09 11:43:37;;;;;;;0.00;0.00;;;16.50;85.50;;;;;;4991821;28;20050;-65
2023/05/09 11:46:03;;;;;;;0.00;0.00;;;16.60;85.80;;;;;;4990977;28;20485;-66
2023/05/09 11:48:29;;;;;;;0.00;0.00;;;16.60;85.90;;;;;;4990019;28;20065;-65
2023/05/09 11:50:55;;;;;;;0.00;0.00;;;16.60;85.90;;;;;;4991799;28;20660;-66
2023/05/09 11:53:20;;;;;;;0.00;0.00;;;16.60;85.80;;;;;;4990138;28;20391;-67
2023/05/09 11:55:46;;;;;;;0.00;0.00;;;16.60;86.10;;;;;;4991110;28;20046;-65
2023/05/09 11:58:12;;;;;;;0.57;0.55;;;16.70;85.80;;;;;;4990656;28;20069;-66
2023/05/09 12:00:44;;;;;;;0.10;0.10;;;16.80;85.60;;;;;;4991540;28;20089;-65
2023/05/09 12:03:11;;;;;;;0.00;0.00;;;16.80;85.60;;;;;;4991529;28;20034;-65
2023/05/09 12:05:38;;;;;;;0.00;0.00;;;16.90;85.80;;;;;;4991119;28;20408;-65
2023/05/09 12:08:05;;;;;;;0.73;0.50;;;16.90;86.20;;;;;;4991679;28;20166;-66
2023/05/09 12:10:31;;;;;;;0.22;0.22;;;17.00;86.10;;;;;;4991085;28;20042;-66
2023/05/09 12:12:57;;;;;;;0.10;0.10;;;17.00;85.80;;;;;;4990087;28;20050;-66
2023/05/09 12:15:23;;;;;;;0.00;0.00;;;17.00;85.90;;;;;;4990223;28;20057;-66
2023/05/09 12:18:06;;;;;;;0.00;0.00;;;17.00;85.80;;;;;;4990721;28;20519;-66
2023/05/09 12:20:51;;;;;;;0.00;0.00;;;17.00;86.10;;;;;;4990143;28;20138;-66
2023/05/09 12:23:17;;;;;;;0.00;0.00;;;17.00;85.80;;;;;;4991089;28;20042;-66
2023/05/09 12:25:46;;;;;;;0.10;0.10;;;16.90;85.80;;;;;;4990666;28;20488;-66
2023/05/09 12:28:12;;;;;;;0.00;0.00;;;16.90;86.00;;;;;;4991016;28;20411;-66
2023/05/09 12:30:38;;;;;;;0.00;0.00;;;16.90;85.90;;;;;;4990932;28;20046;-66
2023/05/09 12:33:04;;;;;;;0.30;0.30;;;16.80;86.20;;;;;;4990995;28;20044;-66
2023/05/09 12:35:30;;;;;;;0.00;0.00;;;16.80;86.20;;;;;;4990706;28;20061;-66
2023/05/09 12:37:57;;;;;;;0.10;0.10;;;16.80;86.20;;;;;;4990519;28;20392;-66
2023/05/09 12:40:23;;;;;;;0.10;0.10;;;16.60;86.20;;;;;;4989772;28;20053;-65
2023/05/09 12:42:49;;;;;;;0.32;0.32;;;16.60;86.10;;;;;;4990605;28;20466;-65
2023/05/09 12:45:14;;;;;;;0.00;0.00;;;16.60;86.70;;;;;;4990799;28;20046;-67
2023/05/09 12:47:41;;;;;;;0.00;0.00;;;16.50;86.40;;;;;;4990527;28;20567;-66
2023/05/09 12:50:08;;;;;;;0.00;0.00;;;16.40;86.40;;;;;;4988978;28;20789;-66